Time;durP1;ratioP1;P1;durP2;ratioP2;P2;SDS_P1;SDS_P2;PMS_P1;PMS_P2;Temp;Humidity;BMP_temperature;BMP_pressure;BME280_temperature;BME280_humidity;BME280_pressure;Samples;Min_cycle;Max_cycle;Signal;HPM_P1;HPM_P2
2023/08/06 00:01:04;;;;;;;2.58;2.38;;;22.60;59.00;;;;;;5015100;28;20220;-79
2023/08/06 00:03:32;;;;;;;2.60;2.40;;;22.60;59.00;;;;;;5016093;28;20328;-79
2023/08/06 00:05:59;;;;;;;2.42;2.22;;;22.50;59.00;;;;;;5015618;28;20566;-79
2023/08/06 00:08:26;;;;;;;2.78;2.22;;;22.50;58.90;;;;;;5015439;28;20656;-80
2023/08/06 00:10:53;;;;;;;2.50;2.30;;;22.50;59.00;;;;;;5017954;28;20257;-79
2023/08/06 00:13:21;;;;;;;2.58;2.25;;;22.50;58.90;;;;;;5015962;28;20197;-80
2023/08/06 00:15:48;;;;;;;2.60;2.17;;;22.50;58.90;;;;;;5016123;28;20221;-80
2023/08/06 00:18:15;;;;;;;2.70;2.50;;;22.50;58.80;;;;;;5016781;28;20204;-80
2023/08/06 00:20:43;;;;;;;3.25;2.85;;;22.50;58.80;;;;;;5015669;28;20676;-80
2023/08/06 00:23:10;;;;;;;2.53;2.33;;;22.50;58.70;;;;;;5067871;22;20271;-81
2023/08/06 00:25:38;;;;;;;2.70;2.50;;;22.50;58.70;;;;;;5035884;28;20250;-81
2023/08/06 00:28:05;;;;;;;2.45;2.25;;;22.50;58.70;;;;;;5035121;28;20652;-81
2023/08/06 00:30:34;;;;;;;2.70;2.50;;;22.50;58.70;;;;;;5034331;28;20310;-81
2023/08/06 00:33:01;;;;;;;2.60;2.20;;;22.50;58.70;;;;;;5035791;28;20200;-81
2023/08/06 00:35:27;;;;;;;2.72;2.50;;;22.50;58.70;;;;;;5034250;28;20216;-81
2023/08/06 00:37:55;;;;;;;2.50;2.30;;;22.40;58.50;;;;;;5035622;28;20200;-82
2023/08/06 00:40:23;;;;;;;2.80;2.60;;;22.40;58.50;;;;;;5035842;28;20215;-82
2023/08/06 00:42:50;;;;;;;2.63;2.42;;;22.40;58.40;;;;;;5019608;28;20200;-81
2023/08/06 00:45:17;;;;;;;2.60;2.40;;;22.40;58.40;;;;;;5035509;28;20264;-81
2023/08/06 00:47:46;;;;;;;2.72;2.53;;;22.40;58.40;;;;;;5037415;28;20204;-81
2023/08/06 00:50:13;;;;;;;4.40;2.50;;;22.40;58.30;;;;;;5035980;28;20300;-81
2023/08/06 00:52:41;;;;;;;4.70;2.90;;;22.40;58.30;;;;;;5035858;28;20204;-81
2023/08/06 00:55:09;;;;;;;3.42;3.00;;;22.40;58.20;;;;;;5018997;28;20286;-81
2023/08/06 00:57:36;;;;;;;3.25;2.95;;;22.40;58.30;;;;;;5019640;28;20232;-81
2023/08/06 01:00:05;;;;;;;3.20;2.90;;;22.40;58.20;;;;;;5035455;28;20210;-81
2023/08/06 01:02:32;;;;;;;3.30;3.05;;;22.30;58.10;;;;;;5035756;28;20200;-81
2023/08/06 01:05:00;;;;;;;3.30;3.00;;;22.30;58.10;;;;;;5020514;28;20211;-81
2023/08/06 01:07:36;;;;;;;3.22;3.00;;;22.30;58.10;;;;;;5036405;28;20260;-81
2023/08/06 01:10:14;;;;;;;3.47;3.05;;;22.30;58.10;;;;;;5035389;28;20211;-81
2023/08/06 01:12:44;;;;;;;3.10;2.80;;;22.30;58.00;;;;;;5035622;28;20195;-81
2023/08/06 01:15:14;;;;;;;3.08;2.88;;;22.30;58.00;;;;;;5036156;28;20242;-82
2023/08/06 01:17:41;;;;;;;3.17;2.97;;;22.30;57.90;;;;;;5035032;28;20230;-82
2023/08/06 01:20:11;;;;;;;3.50;3.20;;;22.30;57.90;;;;;;5035658;28;20519;-82
2023/08/06 01:22:40;;;;;;;3.60;3.30;;;22.30;57.90;;;;;;5035111;28;20231;-81
2023/08/06 01:25:08;;;;;;;3.90;3.40;;;22.30;57.90;;;;;;5034110;28;20196;-82
2023/08/06 01:27:39;;;;;;;3.50;3.20;;;22.20;57.80;;;;;;5034218;28;20196;-81
2023/08/06 01:30:10;;;;;;;4.28;3.20;;;22.20;57.80;;;;;;5034974;28;20193;-81
2023/08/06 01:32:37;;;;;;;3.58;3.17;;;22.30;57.90;;;;;;5034477;28;20191;-81
2023/08/06 01:35:04;;;;;;;3.58;3.28;;;22.20;57.90;;;;;;5017917;28;20236;-81
2023/08/06 01:37:31;;;;;;;3.45;3.25;;;22.20;58.00;;;;;;5034309;28;20214;-81
2023/08/06 01:40:00;;;;;;;3.45;3.15;;;22.20;57.90;;;;;;5023549;28;20199;-81
2023/08/06 01:42:27;;;;;;;3.13;2.80;;;22.20;58.00;;;;;;5033663;28;20654;-81
2023/08/06 01:44:54;;;;;;;3.65;3.35;;;22.20;58.00;;;;;;5032866;28;20606;-81
2023/08/06 01:47:21;;;;;;;3.50;3.10;;;22.10;57.90;;;;;;5034626;28;20280;-81
2023/08/06 01:49:49;;;;;;;3.55;3.25;;;22.10;57.90;;;;;;5033348;28;20681;-82
2023/08/06 01:52:18;;;;;;;3.00;2.80;;;22.10;57.90;;;;;;5034364;28;20223;-81
2023/08/06 01:54:46;;;;;;;3.10;2.90;;;22.20;58.00;;;;;;5034016;28;20216;-81
2023/08/06 01:57:14;;;;;;;2.90;2.70;;;22.10;57.90;;;;;;5033032;28;20200;-81
2023/08/06 01:59:42;;;;;;;5.65;3.30;;;22.10;57.90;;;;;;5033668;28;20200;-81
2023/08/06 02:02:09;;;;;;;3.00;2.80;;;22.10;57.90;;;;;;5033948;28;20227;-81
2023/08/06 02:04:36;;;;;;;3.53;3.17;;;22.10;57.90;;;;;;5034061;28;20195;-81
2023/08/06 02:07:04;;;;;;;2.90;2.65;;;22.10;57.90;;;;;;5035664;28;20192;-81
2023/08/06 02:09:31;;;;;;;3.03;2.83;;;22.10;57.90;;;;;;5033568;28;20668;-81
2023/08/06 02:11:58;;;;;;;2.90;2.70;;;22.10;57.90;;;;;;5034122;28;20226;-81
2023/08/06 02:14:27;;;;;;;2.97;2.67;;;22.10;57.90;;;;;;5033273;28;20567;-81
2023/08/06 02:16:54;;;;;;;2.75;2.42;;;22.00;57.80;;;;;;5033756;28;20200;-81
2023/08/06 02:19:21;;;;;;;2.97;2.75;;;22.00;57.80;;;;;;5034782;28;20204;-81
2023/08/06 02:21:49;;;;;;;2.80;2.60;;;22.00;57.70;;;;;;5032926;28;20324;-81
2023/08/06 02:24:16;;;;;;;2.70;2.50;;;22.00;57.80;;;;;;5033062;28;20250;-81
2023/08/06 02:26:43;;;;;;;3.05;2.80;;;22.00;57.80;;;;;;5033751;28;20196;-81
2023/08/06 02:29:10;;;;;;;3.30;3.00;;;22.00;57.70;;;;;;5033777;28;20267;-81
2023/08/06 02:31:38;;;;;;;3.38;3.08;;;22.00;57.70;;;;;;5033474;28;20208;-81
2023/08/06 02:34:06;;;;;;;3.00;2.70;;;22.00;57.60;;;;;;5033613;28;20192;-81
2023/08/06 02:36:34;;;;;;;3.90;2.70;;;21.90;57.50;;;;;;5033538;28;20299;-81
2023/08/06 02:39:01;;;;;;;3.10;2.78;;;21.90;57.40;;;;;;5034203;28;20227;-82
2023/08/06 02:41:30;;;;;;;2.58;2.38;;;21.90;57.40;;;;;;5034723;28;20315;-81
2023/08/06 02:43:58;;;;;;;3.40;3.10;;;21.90;57.40;;;;;;5017818;28;20223;-81
2023/08/06 02:46:25;;;;;;;2.72;2.53;;;21.90;57.30;;;;;;5034042;28;20223;-81
2023/08/06 02:48:53;;;;;;;2.60;2.40;;;21.90;57.30;;;;;;5017908;28;20230;-81
2023/08/06 02:51:21;;;;;;;2.78;2.30;;;21.90;57.30;;;;;;5034005;28;20690;-81
2023/08/06 02:53:49;;;;;;;2.70;2.50;;;21.90;57.50;;;;;;5033926;28;20619;-81
2023/08/06 02:56:17;;;;;;;2.72;2.53;;;21.90;57.20;;;;;;5034601;28;20640;-81
2023/08/06 02:58:55;;;;;;;3.80;2.47;;;21.80;57.10;;;;;;5037903;28;20200;-81
2023/08/06 03:01:33;;;;;;;2.72;2.47;;;21.80;57.10;;;;;;5037718;28;20638;-81
2023/08/06 03:04:08;;;;;;;2.70;2.50;;;21.80;57.10;;;;;;5022429;28;20179;-81
2023/08/06 03:06:40;;;;;;;3.03;2.67;;;21.80;57.10;;;;;;5037563;28;20215;-81
2023/08/06 03:09:08;;;;;;;2.45;2.28;;;21.70;57.00;;;;;;5037380;28;20573;-81
2023/08/06 03:11:35;;;;;;;2.50;2.30;;;21.80;57.00;;;;;;5037170;28;20226;-81
2023/08/06 03:14:07;;;;;;;3.00;2.30;;;21.70;56.70;;;;;;5037277;28;20340;-81
2023/08/06 03:16:35;;;;;;;2.58;2.33;;;21.70;56.70;;;;;;5036597;28;20395;-81
2023/08/06 03:19:02;;;;;;;2.20;2.00;;;21.70;56.70;;;;;;5036587;28;20196;-81
2023/08/06 03:21:31;;;;;;;2.78;2.20;;;21.80;56.90;;;;;;5036311;28;20220;-81
2023/08/06 03:23:59;;;;;;;2.78;2.28;;;21.80;57.00;;;;;;5036393;28;20215;-81
2023/08/06 03:26:29;;;;;;;2.40;2.20;;;21.80;57.00;;;;;;5037679;28;20604;-82
2023/08/06 03:28:57;;;;;;;2.42;2.22;;;21.70;56.90;;;;;;5046785;28;20180;-81
2023/08/06 03:31:24;;;;;;;2.40;1.92;;;21.80;56.80;;;;;;5056663;28;20230;-82
2023/08/06 03:33:51;;;;;;;2.20;1.83;;;21.80;56.70;;;;;;5056376;28;20563;-81
2023/08/06 03:36:24;;;;;;;2.60;2.40;;;21.90;56.60;;;;;;5034582;28;20215;-81
2023/08/06 03:38:55;;;;;;;2.05;1.90;;;21.90;56.40;;;;;;5042615;28;20196;-81
2023/08/06 03:41:22;;;;;;;2.75;1.88;;;21.90;56.30;;;;;;5041473;28;20224;-81
2023/08/06 03:43:50;;;;;;;3.55;1.90;;;21.90;56.70;;;;;;5040688;28;20192;-81
2023/08/06 03:46:25;;;;;;;2.33;2.13;;;22.00;56.20;;;;;;5040223;28;20246;-81
2023/08/06 03:48:53;;;;;;;2.15;1.95;;;22.00;56.10;;;;;;5006768;28;20199;-81
2023/08/06 03:51:20;;;;;;;2.13;1.85;;;22.10;56.00;;;;;;5038701;28;20250;-81
2023/08/06 03:53:48;;;;;;;2.00;1.90;;;22.10;55.90;;;;;;5038874;28;20196;-81
2023/08/06 03:56:17;;;;;;;2.10;1.98;;;22.20;55.60;;;;;;5038609;28;20212;-81
2023/08/06 03:58:44;;;;;;;1.90;1.67;;;22.20;55.40;;;;;;5021709;28;20296;-81
2023/08/06 04:01:11;;;;;;;2.10;1.80;;;22.30;56.00;;;;;;5038190;28;20212;-81
2023/08/06 04:03:43;;;;;;;1.92;1.80;;;22.30;55.30;;;;;;5036609;28;20563;-81
2023/08/06 04:06:10;;;;;;;1.95;1.75;;;22.20;55.30;;;;;;5035578;28;20197;-81
2023/08/06 04:08:37;;;;;;;1.60;1.50;;;22.20;55.80;;;;;;5037258;28;20184;-81
2023/08/06 04:11:05;;;;;;;1.83;1.55;;;22.20;55.90;;;;;;5035666;28;20230;-81
2023/08/06 04:13:33;;;;;;;1.70;1.60;;;22.20;55.90;;;;;;5034886;28;20227;-81
2023/08/06 04:16:02;;;;;;;1.83;1.70;;;22.10;55.90;;;;;;5034837;28;20369;-81
2023/08/06 04:18:30;;;;;;;1.52;1.42;;;22.20;56.10;;;;;;5018590;28;20200;-81
2023/08/06 04:20:58;;;;;;;1.85;1.75;;;22.10;56.00;;;;;;5018945;28;20269;-81
2023/08/06 04:23:26;;;;;;;2.28;1.60;;;22.10;56.10;;;;;;5034655;28;20544;-81
2023/08/06 04:25:58;;;;;;;2.30;1.77;;;22.10;56.10;;;;;;5034995;28;20199;-81
2023/08/06 04:28:28;;;;;;;2.63;1.73;;;22.10;56.20;;;;;;5035895;28;20589;-81
2023/08/06 04:30:56;;;;;;;2.33;1.52;;;22.10;56.20;;;;;;5035522;28;20587;-81
2023/08/06 04:33:24;;;;;;;1.70;1.60;;;22.10;56.20;;;;;;5035704;28;20218;-81
2023/08/06 04:35:55;;;;;;;1.95;1.85;;;22.10;56.20;;;;;;5035479;28;20208;-81
2023/08/06 04:38:25;;;;;;;2.35;1.83;;;22.00;56.10;;;;;;5035465;28;20188;-81
2023/08/06 04:40:54;;;;;;;1.83;1.70;;;22.10;56.20;;;;;;5035462;28;20303;-81
2023/08/06 04:43:22;;;;;;;2.40;1.88;;;22.10;56.20;;;;;;5035257;28;20203;-81
2023/08/06 04:45:50;;;;;;;1.60;1.50;;;22.10;56.10;;;;;;5034786;28;20220;-82
2023/08/06 04:48:18;;;;;;;1.60;1.50;;;22.10;56.10;;;;;;5036017;28;20192;-81
2023/08/06 04:50:45;;;;;;;3.15;1.80;;;22.10;56.00;;;;;;5034995;28;20216;-81
2023/08/06 04:53:12;;;;;;;2.17;1.60;;;22.10;56.10;;;;;;5034724;28;20192;-81
2023/08/06 04:55:39;;;;;;;1.50;1.40;;;22.10;56.00;;;;;;5034472;28;20219;-80
2023/08/06 04:58:07;;;;;;;2.05;1.85;;;22.10;56.20;;;;;;5034141;28;20651;-80
2023/08/06 05:00:34;;;;;;;1.60;1.50;;;22.10;56.20;;;;;;5034691;28;20219;-80
2023/08/06 05:03:01;;;;;;;1.88;1.65;;;22.10;56.20;;;;;;5017585;28;20239;-80
2023/08/06 05:05:29;;;;;;;2.72;1.80;;;22.10;56.20;;;;;;5034747;28;20184;-80
2023/08/06 05:07:57;;;;;;;2.80;1.50;;;22.10;56.20;;;;;;5034302;28;20222;-80
2023/08/06 05:10:25;;;;;;;1.58;1.48;;;22.10;56.30;;;;;;5034052;28;20216;-80
2023/08/06 05:12:53;;;;;;;1.92;1.73;;;22.10;56.30;;;;;;5033798;28;20283;-81
2023/08/06 05:15:20;;;;;;;1.50;1.40;;;22.10;56.20;;;;;;5016998;28;20235;-81
2023/08/06 05:17:47;;;;;;;1.52;1.40;;;22.10;56.90;;;;;;5033447;28;20271;-81
2023/08/06 05:20:15;;;;;;;1.50;1.40;;;22.10;56.20;;;;;;5033897;28;20224;-81
2023/08/06 05:22:44;;;;;;;1.60;1.50;;;22.10;56.30;;;;;;5034277;28;20203;-81
2023/08/06 05:25:16;;;;;;;1.63;1.52;;;22.10;56.30;;;;;;5034567;28;20290;-81
2023/08/06 05:27:43;;;;;;;1.80;1.58;;;22.10;56.40;;;;;;5034175;28;20199;-81
2023/08/06 05:30:11;;;;;;;1.77;1.50;;;22.10;56.30;;;;;;5034929;28;20378;-81
2023/08/06 05:32:38;;;;;;;1.65;1.30;;;22.10;56.40;;;;;;5035225;28;20192;-81
2023/08/06 05:35:06;;;;;;;1.88;1.52;;;22.10;56.30;;;;;;5033878;28;20282;-81
2023/08/06 05:37:33;;;;;;;2.38;1.70;;;22.10;56.50;;;;;;5033794;28;20223;-81
2023/08/06 05:40:02;;;;;;;1.40;1.30;;;22.20;56.30;;;;;;5033865;28;20200;-81
2023/08/06 05:42:29;;;;;;;1.48;1.38;;;22.20;56.40;;;;;;5038071;28;20263;-81
2023/08/06 05:44:56;;;;;;;1.25;1.13;;;22.30;56.30;;;;;;5035768;28;20594;-81
2023/08/06 05:47:23;;;;;;;1.52;1.30;;;22.40;56.10;;;;;;5033180;28;20287;-81
2023/08/06 05:49:51;;;;;;;1.40;1.30;;;22.50;56.00;;;;;;5034385;28;20200;-81
2023/08/06 05:52:17;;;;;;;1.50;1.40;;;22.50;55.80;;;;;;5034408;28;20207;-81
2023/08/06 05:54:45;;;;;;;1.05;1.00;;;22.50;55.70;;;;;;5033404;28;20196;-81
2023/08/06 05:57:13;;;;;;;2.60;1.30;;;22.70;55.60;;;;;;5034020;28;20220;-81
2023/08/06 05:59:41;;;;;;;1.63;1.20;;;22.70;55.50;;;;;;5033371;28;20204;-81
2023/08/06 06:02:08;;;;;;;1.70;1.35;;;22.70;55.40;;;;;;5033365;28;20310;-81
2023/08/06 06:04:35;;;;;;;1.23;1.13;;;22.80;55.40;;;;;;5033346;28;20210;-81
2023/08/06 06:07:03;;;;;;;1.35;1.10;;;22.70;55.40;;;;;;5034459;28;20188;-81
2023/08/06 06:09:30;;;;;;;1.30;1.10;;;22.70;55.50;;;;;;5035699;28;20279;-81
2023/08/06 06:11:57;;;;;;;1.50;1.17;;;22.70;55.50;;;;;;5035059;28;20695;-81
2023/08/06 06:14:26;;;;;;;2.15;1.40;;;22.60;55.60;;;;;;5038515;28;20199;-81
2023/08/06 06:16:53;;;;;;;1.20;1.10;;;22.60;55.60;;;;;;5048603;28;20216;-81
2023/08/06 06:19:20;;;;;;;1.55;0.90;;;22.60;55.70;;;;;;5034683;28;20283;-81
2023/08/06 06:21:46;;;;;;;1.25;1.10;;;22.50;55.60;;;;;;5045398;22;20609;-81
2023/08/06 06:24:14;;;;;;;1.10;1.00;;;22.60;55.70;;;;;;5017881;28;20651;-81
2023/08/06 06:26:42;;;;;;;2.05;1.10;;;22.60;55.80;;;;;;5017333;28;20254;-81
2023/08/06 06:29:09;;;;;;;1.00;0.85;;;22.60;55.80;;;;;;5016848;28;20580;-81
2023/08/06 06:31:38;;;;;;;0.93;0.93;;;22.60;55.80;;;;;;5001798;28;20231;-81
2023/08/06 06:34:05;;;;;;;1.48;0.90;;;22.60;55.80;;;;;;5022558;28;20200;-80
2023/08/06 06:36:32;;;;;;;2.63;1.20;;;22.50;55.70;;;;;;5025567;28;20216;-79
2023/08/06 06:38:59;;;;;;;1.17;0.90;;;22.60;55.80;;;;;;5021127;28;20211;-80
2023/08/06 06:41:29;;;;;;;1.50;0.95;;;22.60;55.80;;;;;;5020552;28;20222;-80
2023/08/06 06:44:04;;;;;;;1.50;0.93;;;22.50;55.80;;;;;;5021329;28;20196;-80
2023/08/06 06:46:31;;;;;;;1.25;0.90;;;22.60;55.80;;;;;;5020487;28;20215;-80
2023/08/06 06:49:00;;;;;;;1.10;0.82;;;22.50;55.60;;;;;;5020440;28;20204;-80
2023/08/06 06:51:27;;;;;;;1.08;0.98;;;22.60;55.70;;;;;;5020755;28;20307;-80
2023/08/06 06:53:54;;;;;;;1.00;0.90;;;22.60;55.60;;;;;;5020632;28;20199;-80
2023/08/06 06:56:21;;;;;;;2.30;1.00;;;22.60;55.60;;;;;;5021052;28;20223;-80
2023/08/06 06:58:48;;;;;;;0.98;0.82;;;22.60;55.50;;;;;;5020590;28;20203;-80
2023/08/06 07:01:15;;;;;;;1.25;0.75;;;22.60;55.40;;;;;;5020790;28;20212;-80
2023/08/06 07:03:42;;;;;;;1.40;1.00;;;22.70;55.50;;;;;;5020326;28;20196;-80
2023/08/06 07:06:12;;;;;;;1.05;0.80;;;22.70;55.50;;;;;;5020215;28;20200;-80
2023/08/06 07:08:39;;;;;;;0.70;0.70;;;22.70;55.50;;;;;;5019965;28;20303;-80
2023/08/06 07:11:07;;;;;;;0.80;0.70;;;22.70;55.50;;;;;;5019949;28;20219;-80
2023/08/06 07:13:34;;;;;;;1.00;0.90;;;22.60;55.40;;;;;;5019968;28;20203;-80
2023/08/06 07:16:01;;;;;;;0.60;0.60;;;22.70;55.40;;;;;;5019240;28;20204;-81
2023/08/06 07:18:29;;;;;;;0.65;0.63;;;22.70;55.50;;;;;;5020053;28;20553;-80
2023/08/06 07:20:57;;;;;;;0.77;0.77;;;22.70;55.50;;;;;;5020308;28;20212;-80
2023/08/06 07:23:25;;;;;;;0.93;0.80;;;22.70;55.50;;;;;;5020339;28;20219;-80
2023/08/06 07:25:53;;;;;;;0.90;0.65;;;22.70;55.30;;;;;;5019753;28;20572;-80
2023/08/06 07:28:20;;;;;;;0.70;0.60;;;22.70;55.30;;;;;;5019372;28;20246;-80
2023/08/06 07:30:47;;;;;;;1.52;1.02;;;22.70;55.30;;;;;;5002744;28;20216;-80
2023/08/06 07:33:14;;;;;;;0.63;0.63;;;22.80;55.40;;;;;;5019395;28;20199;-80
2023/08/06 07:35:41;;;;;;;0.82;0.80;;;22.70;55.30;;;;;;5018917;28;20200;-80
2023/08/06 07:38:08;;;;;;;0.85;0.73;;;22.70;55.30;;;;;;5019174;28;20220;-80
2023/08/06 07:40:38;;;;;;;1.02;0.50;;;22.70;55.40;;;;;;5018793;28;20220;-81
2023/08/06 07:43:05;;;;;;;0.85;0.68;;;22.70;55.30;;;;;;5018799;28;20294;-81
2023/08/06 07:45:34;;;;;;;0.70;0.70;;;22.70;55.30;;;;;;5018820;28;20690;-81
2023/08/06 07:48:02;;;;;;;0.90;0.82;;;22.70;55.30;;;;;;5002804;28;20200;-81
2023/08/06 07:50:29;;;;;;;1.27;0.73;;;22.70;55.10;;;;;;5018644;28;20222;-80
2023/08/06 07:52:56;;;;;;;0.90;0.50;;;22.80;55.30;;;;;;5019860;28;20200;-80
2023/08/06 07:55:23;;;;;;;1.88;0.73;;;22.80;55.30;;;;;;5018914;28;20219;-80
2023/08/06 07:57:51;;;;;;;1.38;0.63;;;22.90;55.30;;;;;;5018544;28;20224;-80
2023/08/06 08:00:19;;;;;;;0.68;0.60;;;22.90;55.10;;;;;;5019077;28;20219;-80
2023/08/06 08:02:47;;;;;;;0.68;0.43;;;22.90;55.10;;;;;;5018075;28;20223;-78
2023/08/06 08:05:14;;;;;;;0.60;0.60;;;22.90;55.10;;;;;;5017780;28;20262;-78
2023/08/06 08:07:41;;;;;;;0.90;0.60;;;23.00;55.10;;;;;;5017647;28;20552;-78
2023/08/06 08:10:09;;;;;;;0.68;0.50;;;23.00;55.10;;;;;;5017728;28;20200;-79
2023/08/06 08:12:36;;;;;;;0.82;0.75;;;23.00;55.00;;;;;;5018356;28;20208;-79
2023/08/06 08:15:05;;;;;;;0.45;0.20;;;23.00;55.20;;;;;;5001660;28;20705;-79
2023/08/06 08:17:34;;;;;;;1.30;0.40;;;23.00;54.40;;;;;;5038898;28;20268;-78
2023/08/06 08:20:01;;;;;;;0.15;0.15;;;22.90;54.10;;;;;;5018330;28;20210;-78
2023/08/06 08:22:28;;;;;;;0.52;0.28;;;22.80;54.40;;;;;;5018333;28;20214;-79
2023/08/06 08:24:56;;;;;;;0.25;0.25;;;22.80;54.60;;;;;;5019191;28;20196;-79
2023/08/06 08:27:23;;;;;;;0.13;0.13;;;22.70;55.00;;;;;;5017627;28;20224;-78
2023/08/06 08:29:50;;;;;;;15.98;6.93;;;22.80;55.10;;;;;;5018314;28;20203;-78
2023/08/06 08:32:18;;;;;;;63.90;32.40;;;22.80;55.10;;;;;;5017815;28;20207;-78
2023/08/06 08:34:46;;;;;;;106.75;56.45;;;22.90;55.70;;;;;;5018085;28;20192;-78
2023/08/06 08:37:13;;;;;;;102.78;54.20;;;22.90;56.30;;;;;;5017474;28;20212;-78
2023/08/06 08:39:40;;;;;;;73.07;37.60;;;23.00;56.80;;;;;;5017674;28;20212;-79
2023/08/06 08:42:07;;;;;;;58.38;34.08;;;23.10;57.10;;;;;;5018022;28;20577;-79
2023/08/06 08:44:39;;;;;;;37.63;20.23;;;23.20;56.80;;;;;;5018679;28;20290;-79
2023/08/06 08:47:06;;;;;;;33.95;20.85;;;23.30;56.50;;;;;;5018014;28;20200;-79
2023/08/06 08:49:34;;;;;;;25.88;15.70;;;23.30;56.40;;;;;;5018035;28;20228;-79
2023/08/06 08:52:02;;;;;;;27.83;14.52;;;23.40;56.10;;;;;;5017830;28;20231;-78
2023/08/06 08:54:29;;;;;;;23.75;13.70;;;23.40;56.10;;;;;;5016581;28;20200;-78
2023/08/06 08:56:56;;;;;;;19.63;9.73;;;23.40;55.80;;;;;;5016728;28;20242;-79
2023/08/06 08:59:24;;;;;;;12.95;8.10;;;23.50;55.60;;;;;;5016940;28;20227;-79
2023/08/06 09:01:51;;;;;;;12.35;7.82;;;23.50;55.50;;;;;;5017278;28;20226;-79
2023/08/06 09:04:19;;;;;;;8.75;5.60;;;23.50;55.20;;;;;;5017792;28;20227;-79
2023/08/06 09:06:51;;;;;;;12.43;6.80;;;23.60;55.10;;;;;;5016928;28;20192;-78
2023/08/06 09:09:29;;;;;;;8.27;4.57;;;23.50;54.80;;;;;;5016749;28;20291;-79
2023/08/06 09:11:56;;;;;;;8.00;4.22;;;23.60;55.30;;;;;;5017511;28;20519;-78
2023/08/06 09:14:23;;;;;;;6.88;3.95;;;23.60;54.70;;;;;;5016654;28;20614;-79
2023/08/06 09:16:50;;;;;;;6.53;3.50;;;23.70;55.10;;;;;;5016662;28;20216;-79
2023/08/06 09:19:17;;;;;;;4.85;3.40;;;23.70;54.80;;;;;;5017203;28;20200;-79
2023/08/06 09:21:48;;;;;;;6.13;3.05;;;23.70;55.00;;;;;;5016898;28;20220;-78
2023/08/06 09:24:17;;;;;;;2.63;2.17;;;23.70;55.70;;;;;;5016381;28;20207;-77
2023/08/06 09:26:45;;;;;;;4.30;2.20;;;23.70;54.80;;;;;;5016884;28;20286;-78
2023/08/06 09:29:12;;;;;;;2.65;1.50;;;23.70;54.50;;;;;;5016546;28;20207;-79
2023/08/06 09:31:43;;;;;;;1.80;1.65;;;23.70;54.40;;;;;;5016552;28;20216;-78
2023/08/06 09:34:15;;;;;;;2.85;1.88;;;23.70;54.30;;;;;;5016367;28;20206;-78
2023/08/06 09:36:42;;;;;;;1.25;1.10;;;23.80;54.40;;;;;;5016322;28;20566;-79
2023/08/06 09:39:18;;;;;;;1.55;1.17;;;23.80;54.40;;;;;;5016491;28;20196;-79
2023/08/06 09:41:45;;;;;;;1.23;1.05;;;23.80;54.30;;;;;;5016263;28;20220;-79
2023/08/06 09:44:19;;;;;;;1.65;1.00;;;23.80;54.10;;;;;;5016873;28;20200;-79
2023/08/06 09:46:48;;;;;;;0.70;0.70;;;23.80;54.10;;;;;;5016555;28;20204;-79
2023/08/06 09:49:15;;;;;;;1.65;0.90;;;23.80;53.80;;;;;;5016304;28;20346;-79
2023/08/06 09:51:44;;;;;;;1.52;0.95;;;23.80;54.40;;;;;;5016248;28;20220;-79
2023/08/06 09:54:12;;;;;;;4.65;1.20;;;23.80;54.60;;;;;;5016218;28;20204;-79
2023/08/06 09:56:41;;;;;;;3.25;1.25;;;23.80;54.30;;;;;;5015963;28;20196;-78
2023/08/06 09:59:08;;;;;;;1.70;0.80;;;23.80;54.70;;;;;;5016000;28;20203;-79
2023/08/06 10:01:36;;;;;;;2.92;1.05;;;23.80;54.00;;;;;;5015997;28;20216;-78
2023/08/06 10:04:04;;;;;;;1.90;0.73;;;23.90;54.20;;;;;;5016119;28;20207;-79
2023/08/06 10:06:33;;;;;;;1.05;0.50;;;23.90;53.70;;;;;;5017464;28;20203;-79
2023/08/06 10:09:00;;;;;;;1.40;0.70;;;24.00;53.60;;;;;;5020317;28;20196;-77
2023/08/06 10:11:27;;;;;;;1.10;0.63;;;24.00;53.40;;;;;;5020052;28;20220;-79
2023/08/06 10:13:58;;;;;;;1.15;0.77;;;24.00;53.40;;;;;;5020119;28;20206;-79
2023/08/06 10:16:26;;;;;;;0.77;0.50;;;24.10;53.50;;;;;;5021977;28;20195;-79
2023/08/06 10:18:53;;;;;;;0.88;0.50;;;24.00;53.40;;;;;;5042700;28;20216;-79
2023/08/06 10:21:21;;;;;;;0.70;0.30;;;24.00;53.30;;;;;;5029706;28;20236;-78
2023/08/06 10:23:54;;;;;;;0.35;0.35;;;24.00;53.30;;;;;;5020345;28;20200;-78
2023/08/06 10:26:21;;;;;;;0.50;0.38;;;24.00;53.40;;;;;;5020436;28;20627;-78
2023/08/06 10:28:48;;;;;;;0.10;0.10;;;24.00;53.40;;;;;;5019787;28;20192;-78
2023/08/06 10:31:17;;;;;;;0.60;0.25;;;24.00;53.40;;;;;;5020569;28;20224;-80
2023/08/06 10:33:44;;;;;;;0.30;0.30;;;24.00;53.60;;;;;;5021982;28;20203;-78
2023/08/06 10:36:11;;;;;;;0.50;0.40;;;24.00;53.40;;;;;;5022370;28;20659;-78
2023/08/06 10:38:45;;;;;;;0.40;0.40;;;24.00;53.60;;;;;;5022353;28;20745;-78
2023/08/06 10:41:16;;;;;;;0.70;0.32;;;24.00;53.70;;;;;;5022335;28;20224;-78
2023/08/06 10:43:44;;;;;;;0.55;0.22;;;24.00;53.60;;;;;;5022983;28;20200;-78
2023/08/06 10:46:12;;;;;;;0.28;0.28;;;24.00;53.60;;;;;;5022184;28;20196;-78
2023/08/06 10:48:41;;;;;;;0.95;0.20;;;24.00;53.60;;;;;;5040501;28;20188;-78
2023/08/06 10:51:09;;;;;;;0.80;0.28;;;24.00;53.70;;;;;;5024258;28;20220;-79
2023/08/06 10:53:36;;;;;;;1.35;0.50;;;24.00;53.80;;;;;;5023980;28;20200;-79
2023/08/06 10:56:04;;;;;;;0.70;0.30;;;24.00;53.80;;;;;;5021600;28;20204;-78
2023/08/06 10:58:34;;;;;;;0.20;0.20;;;24.00;53.90;;;;;;5021420;28;20217;-78
2023/08/06 11:01:01;;;;;;;0.38;0.30;;;24.00;53.80;;;;;;5020758;28;20231;-78
2023/08/06 11:03:28;;;;;;;0.65;0.35;;;24.00;53.80;;;;;;5020202;28;20219;-78
2023/08/06 11:05:57;;;;;;;0.32;0.32;;;24.00;54.00;;;;;;5020682;28;20207;-78
2023/08/06 11:08:27;;;;;;;0.68;0.35;;;24.00;53.90;;;;;;5019846;28;20196;-78
2023/08/06 11:10:54;;;;;;;0.20;0.20;;;24.00;54.00;;;;;;5020229;28;20706;-78
2023/08/06 11:13:21;;;;;;;0.10;0.10;;;23.90;53.90;;;;;;5019564;28;20295;-78
2023/08/06 11:15:49;;;;;;;0.20;0.20;;;23.90;54.00;;;;;;5004524;28;20216;-78
2023/08/06 11:18:17;;;;;;;0.52;0.30;;;23.90;54.10;;;;;;5018270;28;20212;-78
2023/08/06 11:20:44;;;;;;;0.22;0.22;;;23.90;54.00;;;;;;5018738;28;20307;-78
2023/08/06 11:23:13;;;;;;;0.30;0.30;;;23.90;54.10;;;;;;5018971;28;20257;-78
2023/08/06 11:25:45;;;;;;;0.68;0.40;;;23.90;54.00;;;;;;5019763;28;20207;-76
2023/08/06 11:28:12;;;;;;;0.38;0.38;;;23.80;54.00;;;;;;5019829;28;20188;-78
2023/08/06 11:30:39;;;;;;;1.10;0.40;;;23.80;54.00;;;;;;5020204;28;20215;-78
2023/08/06 11:33:09;;;;;;;0.60;0.30;;;23.80;54.00;;;;;;5020313;28;20197;-78
2023/08/06 11:35:38;;;;;;;0.45;0.20;;;23.80;54.10;;;;;;5020220;28;20196;-78
2023/08/06 11:38:05;;;;;;;0.30;0.30;;;23.80;54.00;;;;;;5020430;28;20223;-78
2023/08/06 11:40:34;;;;;;;1.35;0.50;;;23.70;54.00;;;;;;5019647;28;20227;-78
2023/08/06 11:43:01;;;;;;;0.50;0.30;;;23.70;54.00;;;;;;5018955;28;20572;-78
2023/08/06 11:45:29;;;;;;;0.73;0.30;;;23.70;54.00;;;;;;5019178;28;20290;-77
2023/08/06 11:47:55;;;;;;;0.60;0.40;;;23.70;54.00;;;;;;5018504;28;20200;-78
2023/08/06 11:50:25;;;;;;;1.75;0.30;;;23.70;54.00;;;;;;5019972;28;20220;-78
2023/08/06 11:52:57;;;;;;;0.40;0.30;;;23.70;54.50;;;;;;5002130;28;20188;-78
2023/08/06 11:55:25;;;;;;;0.50;0.50;;;23.70;53.80;;;;;;5018334;28;20196;-76
2023/08/06 11:57:53;;;;;;;0.60;0.40;;;23.70;53.90;;;;;;5018998;28;20212;-78
2023/08/06 12:00:22;;;;;;;0.47;0.47;;;23.70;53.80;;;;;;5018635;28;20216;-78
2023/08/06 12:02:49;;;;;;;0.40;0.40;;;23.70;53.50;;;;;;5019275;28;20211;-78
2023/08/06 12:05:16;;;;;;;0.43;0.40;;;23.70;53.60;;;;;;5018410;28;20279;-78
2023/08/06 12:07:45;;;;;;;0.65;0.65;;;23.70;53.70;;;;;;5019263;28;20662;-78
2023/08/06 12:10:12;;;;;;;0.55;0.55;;;23.70;53.70;;;;;;5026219;28;20222;-78
2023/08/06 12:12:40;;;;;;;0.60;0.60;;;23.60;53.50;;;;;;5022810;28;20250;-78
2023/08/06 12:15:10;;;;;;;0.93;0.60;;;23.70;53.30;;;;;;5018999;28;20196;-78
2023/08/06 12:17:37;;;;;;;0.98;0.70;;;23.60;53.10;;;;;;5019843;28;20196;-78
2023/08/06 12:20:05;;;;;;;0.45;0.45;;;23.60;53.10;;;;;;5019261;28;20697;-79
2023/08/06 12:22:35;;;;;;;2.25;0.60;;;23.60;53.10;;;;;;5033925;22;20228;-81
2023/08/06 12:25:02;;;;;;;1.17;0.75;;;23.60;53.10;;;;;;5003039;28;20196;-80
2023/08/06 12:27:29;;;;;;;0.80;0.80;;;23.60;53.10;;;;;;5018905;28;20191;-80
2023/08/06 12:29:56;;;;;;;0.65;0.63;;;23.60;52.80;;;;;;5018032;28;20655;-81
2023/08/06 12:32:25;;;;;;;0.70;0.70;;;23.50;52.50;;;;;;5019603;28;20199;-81
2023/08/06 12:34:53;;;;;;;0.95;0.60;;;23.60;52.20;;;;;;5003203;28;20265;-81
2023/08/06 12:37:20;;;;;;;0.65;0.65;;;23.60;52.20;;;;;;5002328;28;20210;-81
2023/08/06 12:39:48;;;;;;;0.85;0.85;;;23.60;52.20;;;;;;5019278;28;20629;-81
2023/08/06 12:42:15;;;;;;;1.20;0.80;;;23.60;52.00;;;;;;5018416;28;20211;-81
2023/08/06 12:44:42;;;;;;;0.82;0.82;;;23.60;51.90;;;;;;5018772;28;20234;-81
2023/08/06 12:47:09;;;;;;;0.80;0.80;;;23.60;51.90;;;;;;5018108;28;20655;-81
2023/08/06 12:49:37;;;;;;;0.70;0.70;;;23.60;51.80;;;;;;5018798;28;20248;-81